Bristol, Tennessee
Current Conditions -  °F | °C
As of 5:15 AM on Sunday 26 Oct 2014 (Local Time) from KVJI Reporting Station
Scattered Clouds Scattered Clouds  
Wind Chill: 11°   Ceiling: Unl
Heat Index: 11°   Visibility: 10mi
Dew Point: 10°   Wind: 3mph
Humidity: 93%   Direction: 260°W
Pressure: 29.98"   Gusts: NA
Location:  36.59°N, 82.22°W
Report Text: KVJI 260915Z AUTO 26003KT 10SM SCT033 11/10 A2998 RMK AO2 T01100099
Loading
Personal Weather Stations






























Interactive Weather Map
Tropical Storm Tracking
New forecast layout! Learn more

10-Day Weather Forecast

Advertisements
Track Severe Weather on mobile